sensor_id;sensor_type;location;lat;lon;timestamp;temperature;humidity
22629;DHT22;11481;53.694;9.910;2023-02-21T00:02:25;8.90;99.90
22629;DHT22;11481;53.694;9.910;2023-02-21T00:05:10;8.90;99.90
22629;DHT22;11481;53.694;9.910;2023-02-21T00:07:56;8.80;99.90
22629;DHT22;11481;53.694;9.910;2023-02-21T00:10:41;8.90;99.90
22629;DHT22;11481;53.694;9.910;2023-02-21T00:13:27;8.80;99.90
22629;DHT22;11481;53.694;9.910;2023-02-21T00:16:16;8.80;99.90
22629;DHT22;11481;53.694;9.910;2023-02-21T00:19:03;8.90;99.90
22629;DHT22;11481;53.694;9.910;2023-02-21T00:21:48;8.80;99.90
22629;DHT22;11481;53.694;9.910;2023-02-21T00:24:34;8.90;99.90
22629;DHT22;11481;53.694;9.910;2023-02-21T00:27:19;8.80;99.90
22629;DHT22;11481;53.694;9.910;2023-02-21T00:30:05;8.80;99.90
22629;DHT22;11481;53.694;9.910;2023-02-21T00:32:51;8.80;99.90
22629;DHT22;11481;53.694;9.910;2023-02-21T00:35:36;8.80;99.90
22629;DHT22;11481;53.694;9.910;2023-02-21T00:38:22;8.80;99.90
22629;DHT22;11481;53.694;9.910;2023-02-21T00:41:07;8.90;99.90
22629;DHT22;11481;53.694;9.910;2023-02-21T00:43:52;8.90;99.90
22629;DHT22;11481;53.694;9.910;2023-02-21T00:46:37;8.80;99.90
22629;DHT22;11481;53.694;9.910;2023-02-21T00:49:23;8.80;99.90
22629;DHT22;11481;53.694;9.910;2023-02-21T00:52:08;8.80;99.90
22629;DHT22;11481;53.694;9.910;2023-02-21T00:54:53;8.80;99.90
22629;DHT22;11481;53.694;9.910;2023-02-21T00:57:39;8.80;99.90
22629;DHT22;11481;53.694;9.910;2023-02-21T01:00:24;8.80;99.90
22629;DHT22;11481;53.694;9.910;2023-02-21T01:03:10;8.80;99.90
22629;DHT22;11481;53.694;9.910;2023-02-21T01:05:55;8.70;99.90
22629;DHT22;11481;53.694;9.910;2023-02-21T01:08:43;8.70;99.90
22629;DHT22;11481;53.694;9.910;2023-02-21T01:11:29;8.70;99.90
22629;DHT22;11481;53.694;9.910;2023-02-21T01:14:15;8.70;99.90
22629;DHT22;11481;53.694;9.910;2023-02-21T01:17:00;8.70;99.90
22629;DHT22;11481;53.694;9.910;2023-02-21T01:19:46;8.70;99.90
22629;DHT22;11481;53.694;9.910;2023-02-21T01:22:32;8.80;99.90
22629;DHT22;11481;53.694;9.910;2023-02-21T01:25:17;8.80;99.90
22629;DHT22;11481;53.694;9.910;2023-02-21T01:28:02;8.70;99.90
22629;DHT22;11481;53.694;9.910;2023-02-21T01:30:48;8.70;99.90
22629;DHT22;11481;53.694;9.910;2023-02-21T01:33:37;8.70;99.90
22629;DHT22;11481;53.694;9.910;2023-02-21T01:36:23;8.70;99.90
22629;DHT22;11481;53.694;9.910;2023-02-21T01:39:09;8.70;99.90
22629;DHT22;11481;53.694;9.910;2023-02-21T01:41:55;8.70;99.90
22629;DHT22;11481;53.694;9.910;2023-02-21T01:44:42;8.70;99.90
22629;DHT22;11481;53.694;9.910;2023-02-21T01:47:28;8.70;99.90
22629;DHT22;11481;53.694;9.910;2023-02-21T01:50:24;8.70;99.90
22629;DHT22;11481;53.694;9.910;2023-02-21T01:53:18;8.70;99.90
22629;DHT22;11481;53.694;9.910;2023-02-21T01:56:04;8.60;99.90
22629;DHT22;11481;53.694;9.910;2023-02-21T01:58:52;8.70;99.90
22629;DHT22;11481;53.694;9.910;2023-02-21T02:04:31;8.60;99.90
22629;DHT22;11481;53.694;9.910;2023-02-21T02:07:18;8.60;99.90
22629;DHT22;11481;53.694;9.910;2023-02-21T02:10:05;8.60;99.90
22629;DHT22;11481;53.694;9.910;2023-02-21T02:15:58;8.60;99.90
22629;DHT22;11481;53.694;9.910;2023-02-21T02:32:49;8.60;99.90
22629;DHT22;11481;53.694;9.910;2023-02-21T02:35:30;8.60;99.90
22629;DHT22;11481;53.694;9.910;2023-02-21T02:41:19;8.60;99.90
22629;DHT22;11481;53.694;9.910;2023-02-21T02:43:40;8.60;99.90
22629;DHT22;11481;53.694;9.910;2023-02-21T02:46:18;8.50;99.90
22629;DHT22;11481;53.694;9.910;2023-02-21T02:48:50;8.50;99.90
22629;DHT22;11481;53.694;9.910;2023-02-21T02:51:20;8.50;99.90
22629;DHT22;11481;53.694;9.910;2023-02-21T02:53:48;8.50;99.90
22629;DHT22;11481;53.694;9.910;2023-02-21T02:56:15;8.40;99.90
22629;DHT22;11481;53.694;9.910;2023-02-21T03:10:09;8.30;99.90
22629;DHT22;11481;53.694;9.910;2023-02-21T03:13:12;8.30;99.90
22629;DHT22;11481;53.694;9.910;2023-02-21T03:15:48;8.30;99.90
22629;DHT22;11481;53.694;9.910;2023-02-21T03:18:28;8.30;99.90
22629;DHT22;11481;53.694;9.910;2023-02-21T03:20:58;8.30;99.90
22629;DHT22;11481;53.694;9.910;2023-02-21T03:23:31;8.30;99.90
22629;DHT22;11481;53.694;9.910;2023-02-21T03:26:03;8.30;99.90
22629;DHT22;11481;53.694;9.910;2023-02-21T03:28:33;8.30;99.90
22629;DHT22;11481;53.694;9.910;2023-02-21T03:31:02;8.20;99.90
22629;DHT22;11481;53.694;9.910;2023-02-21T03:33:31;8.20;99.90
22629;DHT22;11481;53.694;9.910;2023-02-21T03:36:00;8.10;99.90
22629;DHT22;11481;53.694;9.910;2023-02-21T03:38:30;8.00;99.90
22629;DHT22;11481;53.694;9.910;2023-02-21T03:40:57;8.10;99.90
22629;DHT22;11481;53.694;9.910;2023-02-21T03:43:24;8.10;99.90
22629;DHT22;11481;53.694;9.910;2023-02-21T03:45:50;8.10;99.90
22629;DHT22;11481;53.694;9.910;2023-02-21T03:48:17;8.10;99.90
22629;DHT22;11481;53.694;9.910;2023-02-21T03:50:57;8.10;99.90
22629;DHT22;11481;53.694;9.910;2023-02-21T03:53:25;8.10;99.90
22629;DHT22;11481;53.694;9.910;2023-02-21T03:55:52;8.10;99.90
22629;DHT22;11481;53.694;9.910;2023-02-21T03:58:18;8.10;99.90
22629;DHT22;11481;53.694;9.910;2023-02-21T04:00:45;8.20;99.90
22629;DHT22;11481;53.694;9.910;2023-02-21T04:03:12;8.20;99.90
22629;DHT22;11481;53.694;9.910;2023-02-21T04:05:39;8.20;99.90
22629;DHT22;11481;53.694;9.910;2023-02-21T04:08:06;8.10;99.90
22629;DHT22;11481;53.694;9.910;2023-02-21T04:10:33;8.00;99.90
22629;DHT22;11481;53.694;9.910;2023-02-21T04:13:12;8.00;99.90
22629;DHT22;11481;53.694;9.910;2023-02-21T04:15:39;8.00;99.90
22629;DHT22;11481;53.694;9.910;2023-02-21T04:18:06;8.00;99.90
22629;DHT22;11481;53.694;9.910;2023-02-21T04:20:33;7.90;99.90
22629;DHT22;11481;53.694;9.910;2023-02-21T04:22:59;8.00;99.90
22629;DHT22;11481;53.694;9.910;2023-02-21T04:25:29;8.00;99.90
22629;DHT22;11481;53.694;9.910;2023-02-21T04:27:56;8.00;99.90
22629;DHT22;11481;53.694;9.910;2023-02-21T04:30:22;7.90;99.90
22629;DHT22;11481;53.694;9.910;2023-02-21T04:32:50;7.90;99.90
22629;DHT22;11481;53.694;9.910;2023-02-21T04:35:17;7.90;99.90
22629;DHT22;11481;53.694;9.910;2023-02-21T04:37:44;7.80;99.90
22629;DHT22;11481;53.694;9.910;2023-02-21T04:40:11;7.90;99.90
22629;DHT22;11481;53.694;9.910;2023-02-21T04:42:38;7.90;99.90
22629;DHT22;11481;53.694;9.910;2023-02-21T04:45:05;7.80;99.90
22629;DHT22;11481;53.694;9.910;2023-02-21T04:47:32;7.90;99.90
22629;DHT22;11481;53.694;9.910;2023-02-21T04:49:58;7.80;99.90
22629;DHT22;11481;53.694;9.910;2023-02-21T04:52:25;7.80;99.90
22629;DHT22;11481;53.694;9.910;2023-02-21T04:54:52;7.70;99.90
22629;DHT22;11481;53.694;9.910;2023-02-21T04:57:19;7.70;99.90
22629;DHT22;11481;53.694;9.910;2023-02-21T04:59:46;7.60;99.90
22629;DHT22;11481;53.694;9.910;2023-02-21T05:02:13;7.70;99.90
22629;DHT22;11481;53.694;9.910;2023-02-21T05:04:40;7.70;99.90
22629;DHT22;11481;53.694;9.910;2023-02-21T05:07:08;7.70;99.90
22629;DHT22;11481;53.694;9.910;2023-02-21T05:09:35;7.70;99.90
22629;DHT22;11481;53.694;9.910;2023-02-21T05:12:02;7.70;99.90
22629;DHT22;11481;53.694;9.910;2023-02-21T05:14:28;7.60;99.90
22629;DHT22;11481;53.694;9.910;2023-02-21T05:16:55;7.70;99.90
22629;DHT22;11481;53.694;9.910;2023-02-21T05:19:22;7.60;99.90
22629;DHT22;11481;53.694;9.910;2023-02-21T05:21:58;7.60;99.90
22629;DHT22;11481;53.694;9.910;2023-02-21T05:24:27;7.60;99.90
22629;DHT22;11481;53.694;9.910;2023-02-21T05:26:54;7.60;99.90
22629;DHT22;11481;53.694;9.910;2023-02-21T05:29:21;7.60;99.90
22629;DHT22;11481;53.694;9.910;2023-02-21T05:31:48;7.50;99.90
22629;DHT22;11481;53.694;9.910;2023-02-21T05:34:15;7.50;99.90
22629;DHT22;11481;53.694;9.910;2023-02-21T05:36:45;7.50;99.90
22629;DHT22;11481;53.694;9.910;2023-02-21T05:39:11;7.50;99.90
22629;DHT22;11481;53.694;9.910;2023-02-21T05:41:38;7.60;99.90
22629;DHT22;11481;53.694;9.910;2023-02-21T05:44:11;7.50;99.90
22629;DHT22;11481;53.694;9.910;2023-02-21T05:46:38;7.60;99.90
22629;DHT22;11481;53.694;9.910;2023-02-21T05:49:05;7.60;99.90
22629;DHT22;11481;53.694;9.910;2023-02-21T05:51:40;7.60;99.90
22629;DHT22;11481;53.694;9.910;2023-02-21T05:54:08;7.60;99.90
22629;DHT22;11481;53.694;9.910;2023-02-21T05:56:39;7.50;99.90
22629;DHT22;11481;53.694;9.910;2023-02-21T05:59:07;7.60;99.90
22629;DHT22;11481;53.694;9.910;2023-02-21T06:01:34;7.60;99.90
22629;DHT22;11481;53.694;9.910;2023-02-21T06:04:01;7.60;99.90
22629;DHT22;11481;53.694;9.910;2023-02-21T06:06:28;7.60;99.90
22629;DHT22;11481;53.694;9.910;2023-02-21T06:08:55;7.60;99.90
22629;DHT22;11481;53.694;9.910;2023-02-21T06:11:24;7.60;99.90
22629;DHT22;11481;53.694;9.910;2023-02-21T06:13:52;7.60;99.90
22629;DHT22;11481;53.694;9.910;2023-02-21T06:16:20;7.60;99.90
22629;DHT22;11481;53.694;9.910;2023-02-21T06:18:52;7.50;99.90
22629;DHT22;11481;53.694;9.910;2023-02-21T06:21:19;7.60;99.90
22629;DHT22;11481;53.694;9.910;2023-02-21T06:23:46;7.60;99.90
22629;DHT22;11481;53.694;9.910;2023-02-21T06:26:14;7.60;99.90
22629;DHT22;11481;53.694;9.910;2023-02-21T06:28:41;7.50;99.90
22629;DHT22;11481;53.694;9.910;2023-02-21T06:31:08;7.60;99.90
22629;DHT22;11481;53.694;9.910;2023-02-21T06:33:35;7.60;99.90
22629;DHT22;11481;53.694;9.910;2023-02-21T06:36:06;7.60;99.90
22629;DHT22;11481;53.694;9.910;2023-02-21T06:38:33;7.60;99.90
22629;DHT22;11481;53.694;9.910;2023-02-21T06:41:07;7.60;99.90
22629;DHT22;11481;53.694;9.910;2023-02-21T06:43:34;7.60;99.90
22629;DHT22;11481;53.694;9.910;2023-02-21T06:46:04;7.50;99.90
22629;DHT22;11481;53.694;9.910;2023-02-21T06:48:31;7.60;99.90
22629;DHT22;11481;53.694;9.910;2023-02-21T06:51:01;7.60;99.90
22629;DHT22;11481;53.694;9.910;2023-02-21T06:53:28;7.60;99.90
22629;DHT22;11481;53.694;9.910;2023-02-21T06:55:55;7.50;99.90
22629;DHT22;11481;53.694;9.910;2023-02-21T06:58:22;7.50;99.90
22629;DHT22;11481;53.694;9.910;2023-02-21T07:00:48;7.50;99.90
22629;DHT22;11481;53.694;9.910;2023-02-21T07:03:15;7.50;99.90
22629;DHT22;11481;53.694;9.910;2023-02-21T07:05:42;7.50;99.90
22629;DHT22;11481;53.694;9.910;2023-02-21T07:08:09;7.60;99.90
22629;DHT22;11481;53.694;9.910;2023-02-21T07:10:36;7.60;99.90
22629;DHT22;11481;53.694;9.910;2023-02-21T07:13:03;7.60;99.90
22629;DHT22;11481;53.694;9.910;2023-02-21T07:15:29;7.70;99.90
22629;DHT22;11481;53.694;9.910;2023-02-21T07:17:56;7.70;99.90
22629;DHT22;11481;53.694;9.910;2023-02-21T07:20:23;7.70;99.90
22629;DHT22;11481;53.694;9.910;2023-02-21T07:22:50;7.70;99.90
22629;DHT22;11481;53.694;9.910;2023-02-21T07:25:19;7.70;99.90
22629;DHT22;11481;53.694;9.910;2023-02-21T07:27:47;7.60;99.90
22629;DHT22;11481;53.694;9.910;2023-02-21T07:30:15;7.70;99.90
22629;DHT22;11481;53.694;9.910;2023-02-21T07:32:42;7.80;99.90
22629;DHT22;11481;53.694;9.910;2023-02-21T07:35:08;7.80;99.90
22629;DHT22;11481;53.694;9.910;2023-02-21T07:37:35;7.80;99.90
22629;DHT22;11481;53.694;9.910;2023-02-21T07:40:03;7.80;99.90
22629;DHT22;11481;53.694;9.910;2023-02-21T07:42:30;7.80;99.90
22629;DHT22;11481;53.694;9.910;2023-02-21T07:44:56;7.80;99.90
22629;DHT22;11481;53.694;9.910;2023-02-21T07:47:25;7.80;99.90
22629;DHT22;11481;53.694;9.910;2023-02-21T07:49:52;7.80;99.90
22629;DHT22;11481;53.694;9.910;2023-02-21T07:52:21;7.90;99.90
22629;DHT22;11481;53.694;9.910;2023-02-21T07:54:50;7.90;99.90
22629;DHT22;11481;53.694;9.910;2023-02-21T07:57:17;7.80;99.90
22629;DHT22;11481;53.694;9.910;2023-02-21T07:59:44;7.90;99.90
22629;DHT22;11481;53.694;9.910;2023-02-21T08:02:13;7.90;99.90
22629;DHT22;11481;53.694;9.910;2023-02-21T08:04:40;7.90;99.90
22629;DHT22;11481;53.694;9.910;2023-02-21T08:07:08;8.00;99.90
22629;DHT22;11481;53.694;9.910;2023-02-21T08:09:35;7.90;99.90
22629;DHT22;11481;53.694;9.910;2023-02-21T08:12:02;7.90;99.90
22629;DHT22;11481;53.694;9.910;2023-02-21T08:14:29;7.90;99.90
22629;DHT22;11481;53.694;9.910;2023-02-21T08:16:56;8.00;99.90
22629;DHT22;11481;53.694;9.910;2023-02-21T08:19:23;8.00;99.90
22629;DHT22;11481;53.694;9.910;2023-02-21T08:21:50;8.10;99.90
22629;DHT22;11481;53.694;9.910;2023-02-21T08:24:17;8.20;99.90
22629;DHT22;11481;53.694;9.910;2023-02-21T08:26:46;8.10;99.90
22629;DHT22;11481;53.694;9.910;2023-02-21T08:29:13;8.20;99.90
22629;DHT22;11481;53.694;9.910;2023-02-21T08:31:41;8.20;99.90
22629;DHT22;11481;53.694;9.910;2023-02-21T08:34:11;8.20;99.90
22629;DHT22;11481;53.694;9.910;2023-02-21T08:36:42;8.30;99.90
22629;DHT22;11481;53.694;9.910;2023-02-21T08:39:09;8.40;99.90
22629;DHT22;11481;53.694;9.910;2023-02-21T08:41:41;8.40;99.90
22629;DHT22;11481;53.694;9.910;2023-02-21T08:44:11;8.40;99.90
22629;DHT22;11481;53.694;9.910;2023-02-21T08:46:38;8.40;99.90
22629;DHT22;11481;53.694;9.910;2023-02-21T08:49:07;8.50;99.90
22629;DHT22;11481;53.694;9.910;2023-02-21T08:51:34;8.50;99.90
22629;DHT22;11481;53.694;9.910;2023-02-21T08:54:02;8.50;99.90
22629;DHT22;11481;53.694;9.910;2023-02-21T08:56:29;8.30;99.90
22629;DHT22;11481;53.694;9.910;2023-02-21T08:58:58;8.40;99.90
22629;DHT22;11481;53.694;9.910;2023-02-21T09:01:31;8.40;99.90
22629;DHT22;11481;53.694;9.910;2023-02-21T09:03:59;8.40;99.90
22629;DHT22;11481;53.694;9.910;2023-02-21T09:06:26;8.50;99.90
22629;DHT22;11481;53.694;9.910;2023-02-21T09:08:52;8.40;99.90
22629;DHT22;11481;53.694;9.910;2023-02-21T09:11:19;8.60;99.90
22629;DHT22;11481;53.694;9.910;2023-02-21T09:13:46;8.50;99.90
22629;DHT22;11481;53.694;9.910;2023-02-21T09:16:12;8.60;99.90
22629;DHT22;11481;53.694;9.910;2023-02-21T09:18:39;8.60;99.90
22629;DHT22;11481;53.694;9.910;2023-02-21T09:21:06;8.60;99.90
22629;DHT22;11481;53.694;9.910;2023-02-21T09:23:33;8.70;99.90
22629;DHT22;11481;53.694;9.910;2023-02-21T09:26:00;8.70;99.90
22629;DHT22;11481;53.694;9.910;2023-02-21T09:28:26;8.70;99.90
22629;DHT22;11481;53.694;9.910;2023-02-21T09:30:54;8.90;99.90
22629;DHT22;11481;53.694;9.910;2023-02-21T09:33:21;9.10;99.90
22629;DHT22;11481;53.694;9.910;2023-02-21T09:35:50;9.10;99.90
22629;DHT22;11481;53.694;9.910;2023-02-21T09:38:17;9.00;99.90
22629;DHT22;11481;53.694;9.910;2023-02-21T09:40:49;9.10;99.90
22629;DHT22;11481;53.694;9.910;2023-02-21T09:45:54;9.10;99.90
22629;DHT22;11481;53.694;9.910;2023-02-21T09:48:23;9.10;99.90
22629;DHT22;11481;53.694;9.910;2023-02-21T09:50:53;9.00;99.90
22629;DHT22;11481;53.694;9.910;2023-02-21T09:53:28;9.00;99.90
22629;DHT22;11481;53.694;9.910;2023-02-21T09:56:03;9.10;99.90
22629;DHT22;11481;53.694;9.910;2023-02-21T09:58:30;9.20;99.90
22629;DHT22;11481;53.694;9.910;2023-02-21T10:01:03;9.30;99.90
22629;DHT22;11481;53.694;9.910;2023-02-21T10:04:20;9.20;99.90
22629;DHT22;11481;53.694;9.910;2023-02-21T10:06:50;9.30;99.90
22629;DHT22;11481;53.694;9.910;2023-02-21T10:09:32;9.20;99.90
22629;DHT22;11481;53.694;9.910;2023-02-21T10:12:23;9.10;99.90
22629;DHT22;11481;53.694;9.910;2023-02-21T10:18:05;9.20;99.90
22629;DHT22;11481;53.694;9.910;2023-02-21T10:20:38;9.40;99.90
22629;DHT22;11481;53.694;9.910;2023-02-21T10:23:15;9.50;99.90
22629;DHT22;11481;53.694;9.910;2023-02-21T10:25:46;9.50;99.90
22629;DHT22;11481;53.694;9.910;2023-02-21T10:28:18;9.60;99.90
22629;DHT22;11481;53.694;9.910;2023-02-21T10:30:48;9.80;99.90
22629;DHT22;11481;53.694;9.910;2023-02-21T10:33:15;9.70;99.90
22629;DHT22;11481;53.694;9.910;2023-02-21T10:35:42;9.70;99.90
22629;DHT22;11481;53.694;9.910;2023-02-21T10:38:24;9.60;99.90
22629;DHT22;11481;53.694;9.910;2023-02-21T10:40:58;9.50;99.90
22629;DHT22;11481;53.694;9.910;2023-02-21T10:43:39;9.60;99.90
22629;DHT22;11481;53.694;9.910;2023-02-21T10:46:22;9.60;99.90
22629;DHT22;11481;53.694;9.910;2023-02-21T10:48:52;9.70;99.90
22629;DHT22;11481;53.694;9.910;2023-02-21T10:51:32;9.80;99.90
22629;DHT22;11481;53.694;9.910;2023-02-21T10:54:19;9.80;99.90
22629;DHT22;11481;53.694;9.910;2023-02-21T10:56:47;9.80;99.90
22629;DHT22;11481;53.694;9.910;2023-02-21T10:59:27;9.90;99.90
22629;DHT22;11481;53.694;9.910;2023-02-21T11:01:56;10.00;99.90
22629;DHT22;11481;53.694;9.910;2023-02-21T11:07:07;10.00;99.90
22629;DHT22;11481;53.694;9.910;2023-02-21T11:09:47;10.10;99.90
22629;DHT22;11481;53.694;9.910;2023-02-21T11:15:09;10.30;99.90
22629;DHT22;11481;53.694;9.910;2023-02-21T11:17:42;10.40;99.90
22629;DHT22;11481;53.694;9.910;2023-02-21T11:20:20;10.40;99.90
22629;DHT22;11481;53.694;9.910;2023-02-21T11:22:49;10.50;99.90
22629;DHT22;11481;53.694;9.910;2023-02-21T11:28:05;10.70;99.90
22629;DHT22;11481;53.694;9.910;2023-02-21T11:30:35;10.60;99.90
22629;DHT22;11481;53.694;9.910;2023-02-21T11:33:04;10.60;99.90
22629;DHT22;11481;53.694;9.910;2023-02-21T11:35:38;10.60;99.90
22629;DHT22;11481;53.694;9.910;2023-02-21T11:38:39;10.60;99.90
22629;DHT22;11481;53.694;9.910;2023-02-21T11:43:47;10.50;99.90
22629;DHT22;11481;53.694;9.910;2023-02-21T11:46:36;10.70;99.90
22629;DHT22;11481;53.694;9.910;2023-02-21T11:49:40;10.60;99.90
22629;DHT22;11481;53.694;9.910;2023-02-21T11:55:26;10.40;99.90
22629;DHT22;11481;53.694;9.910;2023-02-21T11:58:06;10.40;99.90
22629;DHT22;11481;53.694;9.910;2023-02-21T12:00:53;10.30;99.90
22629;DHT22;11481;53.694;9.910;2023-02-21T12:07:26;10.50;99.90
22629;DHT22;11481;53.694;9.910;2023-02-21T12:10:12;10.50;99.90
22629;DHT22;11481;53.694;9.910;2023-02-21T12:12:54;10.50;99.90
22629;DHT22;11481;53.694;9.910;2023-02-21T12:15:28;10.60;99.90
22629;DHT22;11481;53.694;9.910;2023-02-21T12:18:07;10.40;99.90
22629;DHT22;11481;53.694;9.910;2023-02-21T12:21:02;10.40;99.90
22629;DHT22;11481;53.694;9.910;2023-02-21T12:41:00;10.10;99.90
22629;DHT22;11481;53.694;9.910;2023-02-21T12:46:30;9.90;99.90
22629;DHT22;11481;53.694;9.910;2023-02-21T12:51:38;10.10;99.90
22629;DHT22;11481;53.694;9.910;2023-02-21T12:54:12;10.10;99.90
22629;DHT22;11481;53.694;9.910;2023-02-21T12:56:47;10.00;99.90
22629;DHT22;11481;53.694;9.910;2023-02-21T12:59:20;10.00;99.90
22629;DHT22;11481;53.694;9.910;2023-02-21T13:01:54;10.00;99.90
22629;DHT22;11481;53.694;9.910;2023-02-21T13:07:30;10.00;99.90
22629;DHT22;11481;53.694;9.910;2023-02-21T13:10:17;10.00;99.90
22629;DHT22;11481;53.694;9.910;2023-02-21T13:13:08;9.90;99.90
22629;DHT22;11481;53.694;9.910;2023-02-21T13:15:40;9.90;99.90
22629;DHT22;11481;53.694;9.910;2023-02-21T13:18:14;9.80;99.90
22629;DHT22;11481;53.694;9.910;2023-02-21T13:20:54;9.90;99.90
22629;DHT22;11481;53.694;9.910;2023-02-21T13:28:42;9.90;99.90
22629;DHT22;11481;53.694;9.910;2023-02-21T13:31:22;9.90;99.90
22629;DHT22;11481;53.694;9.910;2023-02-21T13:33:51;10.00;99.90
22629;DHT22;11481;53.694;9.910;2023-02-21T13:41:39;10.00;99.90
22629;DHT22;11481;53.694;9.910;2023-02-21T13:44:11;10.10;99.90
22629;DHT22;11481;53.694;9.910;2023-02-21T13:49:35;9.90;99.90
22629;DHT22;11481;53.694;9.910;2023-02-21T13:52:34;9.90;99.90
22629;DHT22;11481;53.694;9.910;2023-02-21T13:55:27;9.70;99.90
22629;DHT22;11481;53.694;9.910;2023-02-21T14:11:21;9.80;99.90
22629;DHT22;11481;53.694;9.910;2023-02-21T14:13:54;9.70;99.90
22629;DHT22;11481;53.694;9.910;2023-02-21T14:16:29;9.80;99.90
22629;DHT22;11481;53.694;9.910;2023-02-21T14:19:06;9.70;99.90
22629;DHT22;11481;53.694;9.910;2023-02-21T14:21:44;9.60;99.90
22629;DHT22;11481;53.694;9.910;2023-02-21T14:24:23;9.60;99.90
22629;DHT22;11481;53.694;9.910;2023-02-21T14:26:55;9.50;99.90
22629;DHT22;11481;53.694;9.910;2023-02-21T14:37:25;9.60;99.90
22629;DHT22;11481;53.694;9.910;2023-02-21T15:02:25;9.60;99.90
22629;DHT22;11481;53.694;9.910;2023-02-21T15:05:26;9.40;99.90
22629;DHT22;11481;53.694;9.910;2023-02-21T15:08:20;9.40;99.90
22629;DHT22;11481;53.694;9.910;2023-02-21T15:10:52;9.30;99.90
22629;DHT22;11481;53.694;9.910;2023-02-21T15:16:12;9.40;99.90
22629;DHT22;11481;53.694;9.910;2023-02-21T15:19:00;9.40;99.90
22629;DHT22;11481;53.694;9.910;2023-02-21T15:21:27;9.40;99.90
22629;DHT22;11481;53.694;9.910;2023-02-21T15:24:05;9.50;99.90
22629;DHT22;11481;53.694;9.910;2023-02-21T15:26:38;9.30;99.90
22629;DHT22;11481;53.694;9.910;2023-02-21T15:31:35;9.30;99.90
22629;DHT22;11481;53.694;9.910;2023-02-21T15:34:04;9.20;99.90
22629;DHT22;11481;53.694;9.910;2023-02-21T15:36:31;9.20;99.90
22629;DHT22;11481;53.694;9.910;2023-02-21T15:39:05;9.20;99.90
22629;DHT22;11481;53.694;9.910;2023-02-21T15:41:35;9.20;99.90
22629;DHT22;11481;53.694;9.910;2023-02-21T15:46:47;9.20;99.90
22629;DHT22;11481;53.694;9.910;2023-02-21T15:51:45;9.10;99.90
22629;DHT22;11481;53.694;9.910;2023-02-21T15:56:43;9.00;99.90
22629;DHT22;11481;53.694;9.910;2023-02-21T15:59:19;8.90;99.90
22629;DHT22;11481;53.694;9.910;2023-02-21T16:02:15;9.00;99.90
22629;DHT22;11481;53.694;9.910;2023-02-21T16:04:47;9.00;99.90
22629;DHT22;11481;53.694;9.910;2023-02-21T16:07:27;9.00;99.90
22629;DHT22;11481;53.694;9.910;2023-02-21T16:10:00;8.90;99.90
22629;DHT22;11481;53.694;9.910;2023-02-21T16:12:34;8.80;99.90
22629;DHT22;11481;53.694;9.910;2023-02-21T16:15:13;8.80;99.90
22629;DHT22;11481;53.694;9.910;2023-02-21T16:17:50;8.70;99.90
22629;DHT22;11481;53.694;9.910;2023-02-21T16:20:22;8.60;99.90
22629;DHT22;11481;53.694;9.910;2023-02-21T16:23:25;8.80;99.90
22629;DHT22;11481;53.694;9.910;2023-02-21T16:28:43;8.70;99.90
22629;DHT22;11481;53.694;9.910;2023-02-21T16:31:32;8.70;99.90
22629;DHT22;11481;53.694;9.910;2023-02-21T16:33:59;8.70;99.90
22629;DHT22;11481;53.694;9.910;2023-02-21T16:36:28;8.80;99.90
22629;DHT22;11481;53.694;9.910;2023-02-21T16:38:56;8.70;99.90
22629;DHT22;11481;53.694;9.910;2023-02-21T16:41:24;8.70;99.90
22629;DHT22;11481;53.694;9.910;2023-02-21T16:43:51;8.70;99.90
22629;DHT22;11481;53.694;9.910;2023-02-21T16:46:23;8.70;99.90
22629;DHT22;11481;53.694;9.910;2023-02-21T16:48:55;8.60;99.90
22629;DHT22;11481;53.694;9.910;2023-02-21T16:51:22;8.70;99.90
22629;DHT22;11481;53.694;9.910;2023-02-21T16:53:48;8.70;99.90
22629;DHT22;11481;53.694;9.910;2023-02-21T16:56:15;8.60;99.90
22629;DHT22;11481;53.694;9.910;2023-02-21T16:58:47;8.60;99.90
22629;DHT22;11481;53.694;9.910;2023-02-21T17:01:30;8.60;99.90
22629;DHT22;11481;53.694;9.910;2023-02-21T17:03:59;8.50;99.90
22629;DHT22;11481;53.694;9.910;2023-02-21T17:06:28;8.60;99.90
22629;DHT22;11481;53.694;9.910;2023-02-21T17:08:55;8.60;99.90
22629;DHT22;11481;53.694;9.910;2023-02-21T17:11:22;8.70;99.90
22629;DHT22;11481;53.694;9.910;2023-02-21T17:13:48;8.70;99.90
22629;DHT22;11481;53.694;9.910;2023-02-21T17:16:16;8.60;99.90
22629;DHT22;11481;53.694;9.910;2023-02-21T17:18:44;8.70;99.90
22629;DHT22;11481;53.694;9.910;2023-02-21T17:21:10;8.70;99.90
22629;DHT22;11481;53.694;9.910;2023-02-21T17:23:37;8.70;99.90
22629;DHT22;11481;53.694;9.910;2023-02-21T17:26:04;8.70;99.90
22629;DHT22;11481;53.694;9.910;2023-02-21T17:28:31;8.70;99.90
22629;DHT22;11481;53.694;9.910;2023-02-21T17:30:57;8.70;99.90
22629;DHT22;11481;53.694;9.910;2023-02-21T17:33:24;8.70;99.90
22629;DHT22;11481;53.694;9.910;2023-02-21T17:35:54;8.60;99.90
22629;DHT22;11481;53.694;9.910;2023-02-21T17:38:20;8.60;99.90
22629;DHT22;11481;53.694;9.910;2023-02-21T17:40:47;8.60;99.90
22629;DHT22;11481;53.694;9.910;2023-02-21T17:43:15;8.60;99.90
22629;DHT22;11481;53.694;9.910;2023-02-21T17:45:42;8.60;99.90
22629;DHT22;11481;53.694;9.910;2023-02-21T17:48:08;8.60;99.90
22629;DHT22;11481;53.694;9.910;2023-02-21T17:50:35;8.60;99.90
22629;DHT22;11481;53.694;9.910;2023-02-21T17:53:01;8.60;99.90
22629;DHT22;11481;53.694;9.910;2023-02-21T17:55:28;8.60;99.90
22629;DHT22;11481;53.694;9.910;2023-02-21T17:57:55;8.50;99.90
22629;DHT22;11481;53.694;9.910;2023-02-21T18:00:27;8.50;99.90
22629;DHT22;11481;53.694;9.910;2023-02-21T18:02:55;8.50;99.90
22629;DHT22;11481;53.694;9.910;2023-02-21T18:05:22;8.60;99.90
22629;DHT22;11481;53.694;9.910;2023-02-21T18:07:51;8.60;99.90
22629;DHT22;11481;53.694;9.910;2023-02-21T18:10:19;8.70;99.90
22629;DHT22;11481;53.694;9.910;2023-02-21T18:12:47;8.70;99.90
22629;DHT22;11481;53.694;9.910;2023-02-21T18:15:19;8.70;99.90
22629;DHT22;11481;53.694;9.910;2023-02-21T18:17:46;8.70;99.90
22629;DHT22;11481;53.694;9.910;2023-02-21T18:20:14;8.70;99.90
22629;DHT22;11481;53.694;9.910;2023-02-21T18:22:42;8.70;99.90
22629;DHT22;11481;53.694;9.910;2023-02-21T18:25:09;8.70;99.90
22629;DHT22;11481;53.694;9.910;2023-02-21T18:27:36;8.70;99.90
22629;DHT22;11481;53.694;9.910;2023-02-21T18:30:03;8.70;99.90
22629;DHT22;11481;53.694;9.910;2023-02-21T18:32:30;8.80;99.90
22629;DHT22;11481;53.694;9.910;2023-02-21T18:34:57;8.80;99.90
22629;DHT22;11481;53.694;9.910;2023-02-21T18:37:25;8.70;99.90
22629;DHT22;11481;53.694;9.910;2023-02-21T18:39:53;8.70;99.90
22629;DHT22;11481;53.694;9.910;2023-02-21T18:42:21;8.70;99.90
22629;DHT22;11481;53.694;9.910;2023-02-21T18:44:50;8.70;99.90
22629;DHT22;11481;53.694;9.910;2023-02-21T18:47:17;8.60;99.90
22629;DHT22;11481;53.694;9.910;2023-02-21T18:49:45;8.70;99.90
22629;DHT22;11481;53.694;9.910;2023-02-21T18:52:13;8.70;99.90
22629;DHT22;11481;53.694;9.910;2023-02-21T18:54:45;8.80;99.90
22629;DHT22;11481;53.694;9.910;2023-02-21T18:57:18;8.80;99.90
22629;DHT22;11481;53.694;9.910;2023-02-21T18:59:45;8.80;99.90